Johnstown, PA

4:35 AM EST on December 09, 2016 (GMT -0500)
The Treetops at Stackhouse | | Change Station

Elev 1663 ft 40.32 °N, 78.93 °W | Updated 46 seconds ago

Overcast
Overcast
20.2 °F
Feels Like 13 °F
N
5.0
Wind Variable Wind from West

Today
High -- | Low -- °F
--% Chance of Precip.
Yesterday
High -- | Low -- °F
Precip. -- in
Pressure 30.22 in
Visibility 5.0 miles
Clouds Overcast 1100 ft
Windchill 13 °F
Dew Point 15 °F
Humidity 80%
Rainfall 0.00 in
Snow Depth Not available.
7:27 AM 4:49 PM
Waxing Gibbous, 72% visible
METAR KJST 090854Z AUTO 27014G20KT 5SM -SN BR OVC011 M07/M09 A3011 RMK AO2 PK WND 27026/0826 SLP232 P0000 60000 T10721094 51014 TSNO
Pressure 30.22 in
Visibility 5.0 miles
Clouds Overcast 1100 ft
Windchill 13 °F
Dew Point 15 °F
Humidity 80%
Rainfall 0.00 in
Snow Depth Not available.
7:27 AM 4:49 PM
Waxing Gibbous, 72% visible
METAR KJST 090854Z AUTO 27014G20KT 5SM -SN BR OVC011 M07/M09 A3011 RMK AO2 PK WND 27026/0826 SLP232 P0000 60000 T10721094 51014 TSNO

10-Day Weather Forecast

Almanac

Astronomy

Dec. 09, 2016 Rise Set
Actual Time
Civil Twilight
Nautical Twilight
Astronomical Twilight
Moon
Length of Visible Light
Length of Day
Tomorrow will be .
, % of the Moon is Illuminated

Today's Extremes

State Highs State Lows

Community

WunderPhotos

Upload Photos

1,956,371 photos uploaded!

WunderBlog® & News

Nearby

Air Quality

  Air Quality AQ Index Pollutant
Not available.

Snow Depth

Station Depth Elevation

Earthquake Activity

City Distance Mag. Time & Date
Minimum magnitude displayed is 2.5.

Coastal Water Temperatures

Place Temperature

Stations

Nearby Weather Stations

Station Location Temp. Windchill Dew Point Humidity Wind Precip. Elev Updated Type
                   

Watches & Warnings

There are currently no watches in effect.